Airfield :
LOGIN :

Register | Disclaimer

   EN    FR    IT 

 










Legend :    VFR   Marginal VFR   IFR   Intensive IFR   Very Intensive IFR
Visi :
Ceiling :
>= 8 km
>= 3000ft
5 to 8 km
1000 to 3000 ft
1500m to 5 km
500 to 1000 ft
800 to 1500m
200 to 500 ft
< 800m
< 200 ft
Symbols :   Thunderstorms  Fog  Heavy snow  Heavy precipitations  Wind > 20 kt
SIGMETs :     Misc.  Thunderstorms  Icing  Turbulence  Mountain Waves  Volcanic Ashes






- Airport Elevation : 286 ft
- IATA code : FFD


EGVA - RAF Fairford

CURRENT METAR :
  • 290355Z AUTO 26009KT 9999 -DZ SCT070 12/11 A2975 RMK AO2 SLP077 P0000 T01230109 $

EXPIRED METARs :
  • 290255Z AUTO 25012KT 9999 -DZ FEW013 OVC065 13/11 A2974 RMK AO2 SLP074 P0001 60010 T01280114 57009 $
  • 290210Z AUTO 24008KT 9999 -DZ SCT006 SCT013 OVC070 12/11 A2974 RMK AO2 SLP074 $
  • 290205Z AUTO 24008KT 9999 -DZ SCT006 BKN011 BKN016 OVC070 12/11 A2974 RMK AO2 CIG 006V011 CIG 008 RWY09 SLP074 $
  • 290155Z AUTO 25009KT 9999 -DZ BKN006 OVC010 12/11 A2975 RMK AO2 RAE47DZB47 SLP078 P0008 T01240113 $
  • 290140Z AUTO 27010KT 6000 -RA BR BKN007 BKN013 OVC019 13/11 A2975 RMK AO2 CIG 007V014 BKN007 V SCT SLP077 $
  • 290130Z AUTO 26008KT 9999 -RA SCT009 BKN014 OVC031 13/11 A2975 RMK AO2 CIG 014V034 SLP077 $
  • 290055Z AUTO 23008KT 9999 -RA SCT017 SCT032 BKN050 BKN065 13/11 A2975 RMK AO2 DZE47RAB47 SLP077 P0001 T01270113 $
  • 290045Z AUTO 24008KT 9999 -DZ SCT017 BKN029 BKN065 13/11 A2975 RMK AO2 CIG 029V065 SLP077 $
  • 290035Z AUTO 24008KT 9999 -DZ SCT017 BKN033 BKN060 13/11 A2976 RMK AO2 SLP081 $
  • 282355Z AUTO 25012KT 9999 -DZ FEW017 OVC060 13/11 A2977 RMK AO2 SLP084 P0000 60002 T01290108 10156 20126 401790110 50004 $

TAF TAF EGVA
Valid from the 29 at 03:00 until the 30 at 09:00 UTC


290300Z 2903/3009 25010G15KT 9999 SCT015 BKN065 QNH2974INS
BECMG 2911/2912 27012G20KT 9999 SCT030 QNH2976INS
TEMPO 2914/2917 9000 -SHRA BKN030
BECMG 2917/2918 27006KT 9999 SCT030 QNH2976INS
BECMG 3003/3004 27009KT 9999 BKN015 QNH2975INS TX17/2912Z TN11/3001Z



MET'MAP, your aeronautical weather chart ! - Copyright ORBIFLY December 2007 - Disclaimer

ORBIFLY MET'MAP TEAM :

Programming & Development : Alexandra Zaïnal
Original concept : Baudouin d'Aumeries
Technical & hardware support : Manuel Goepfert
Assistance : Marc-Olivier Méhu




SOURCES & CREDITS :

   NOAA